sensor_id;sensor_type;location;lat;lon;timestamp;temperature;humidity
9640;DHT22;51745;50.872;4.732;2023-05-16T00:00:45;8.90;99.90
9640;DHT22;51745;50.872;4.732;2023-05-16T00:03:35;8.90;99.90
9640;DHT22;51745;50.872;4.732;2023-05-16T00:06:24;8.90;99.90
9640;DHT22;51745;50.872;4.732;2023-05-16T00:09:12;8.80;99.90
9640;DHT22;51745;50.872;4.732;2023-05-16T00:12:00;8.80;99.90
9640;DHT22;51745;50.872;4.732;2023-05-16T00:14:48;8.80;99.90
9640;DHT22;51745;50.872;4.732;2023-05-16T00:17:37;8.70;99.90
9640;DHT22;51745;50.872;4.732;2023-05-16T00:20:31;8.60;99.90
9640;DHT22;51745;50.872;4.732;2023-05-16T00:23:20;8.40;99.90
9640;DHT22;51745;50.872;4.732;2023-05-16T00:26:07;8.50;99.90
9640;DHT22;51745;50.872;4.732;2023-05-16T00:28:59;8.40;99.90
9640;DHT22;51745;50.872;4.732;2023-05-16T00:31:48;8.60;99.90
9640;DHT22;51745;50.872;4.732;2023-05-16T00:34:36;8.30;99.90
9640;DHT22;51745;50.872;4.732;2023-05-16T00:37:25;8.20;99.90
9640;DHT22;51745;50.872;4.732;2023-05-16T00:40:13;8.20;99.90
9640;DHT22;51745;50.872;4.732;2023-05-16T00:43:02;8.20;99.90
9640;DHT22;51745;50.872;4.732;2023-05-16T00:45:51;8.10;99.90
9640;DHT22;51745;50.872;4.732;2023-05-16T00:48:38;8.10;99.90
9640;DHT22;51745;50.872;4.732;2023-05-16T00:51:27;8.10;99.90
9640;DHT22;51745;50.872;4.732;2023-05-16T00:54:17;7.90;99.90
9640;DHT22;51745;50.872;4.732;2023-05-16T00:57:05;8.20;99.90
9640;DHT22;51745;50.872;4.732;2023-05-16T00:59:54;8.00;99.90
9640;DHT22;51745;50.872;4.732;2023-05-16T01:02:42;7.90;99.90
9640;DHT22;51745;50.872;4.732;2023-05-16T01:05:31;7.90;99.90
9640;DHT22;51745;50.872;4.732;2023-05-16T01:08:18;7.80;99.90
9640;DHT22;51745;50.872;4.732;2023-05-16T01:11:10;7.80;99.90
9640;DHT22;51745;50.872;4.732;2023-05-16T01:13:59;7.80;99.90
9640;DHT22;51745;50.872;4.732;2023-05-16T01:16:53;7.70;99.90
9640;DHT22;51745;50.872;4.732;2023-05-16T01:19:46;7.70;99.90
9640;DHT22;51745;50.872;4.732;2023-05-16T01:22:42;7.70;99.90
9640;DHT22;51745;50.872;4.732;2023-05-16T01:25:37;7.70;99.90
9640;DHT22;51745;50.872;4.732;2023-05-16T01:28:27;7.60;99.90
9640;DHT22;51745;50.872;4.732;2023-05-16T01:31:15;7.60;99.90
9640;DHT22;51745;50.872;4.732;2023-05-16T01:34:02;7.60;99.90
9640;DHT22;51745;50.872;4.732;2023-05-16T01:36:51;7.60;99.90
9640;DHT22;51745;50.872;4.732;2023-05-16T01:39:43;7.60;99.90
9640;DHT22;51745;50.872;4.732;2023-05-16T01:42:32;7.60;99.90
9640;DHT22;51745;50.872;4.732;2023-05-16T01:45:25;7.60;99.90
9640;DHT22;51745;50.872;4.732;2023-05-16T01:48:15;7.50;99.90
9640;DHT22;51745;50.872;4.732;2023-05-16T01:51:04;7.50;99.90
9640;DHT22;51745;50.872;4.732;2023-05-16T01:53:53;7.40;99.90
9640;DHT22;51745;50.872;4.732;2023-05-16T01:59:31;6.10;99.90
9640;DHT22;51745;50.872;4.732;2023-05-16T02:02:20;6.90;99.90
9640;DHT22;51745;50.872;4.732;2023-05-16T02:05:08;7.40;99.90
9640;DHT22;51745;50.872;4.732;2023-05-16T02:07:56;7.30;99.90
9640;DHT22;51745;50.872;4.732;2023-05-16T02:10:44;7.30;99.90
9640;DHT22;51745;50.872;4.732;2023-05-16T02:13:32;7.20;99.90
9640;DHT22;51745;50.872;4.732;2023-05-16T02:16:21;7.20;99.90
9640;DHT22;51745;50.872;4.732;2023-05-16T02:19:10;7.10;99.90
9640;DHT22;51745;50.872;4.732;2023-05-16T02:21:58;7.10;99.90
9640;DHT22;51745;50.872;4.732;2023-05-16T02:24:46;7.10;99.90
9640;DHT22;51745;50.872;4.732;2023-05-16T02:27:33;7.10;99.90
9640;DHT22;51745;50.872;4.732;2023-05-16T02:30:21;7.10;99.90
9640;DHT22;51745;50.872;4.732;2023-05-16T02:33:10;7.00;99.90
9640;DHT22;51745;50.872;4.732;2023-05-16T02:35:59;8.10;99.90
9640;DHT22;51745;50.872;4.732;2023-05-16T02:38:48;7.00;99.90
9640;DHT22;51745;50.872;4.732;2023-05-16T02:41:37;7.00;99.90
9640;DHT22;51745;50.872;4.732;2023-05-16T02:44:24;7.30;99.90
9640;DHT22;51745;50.872;4.732;2023-05-16T02:47:16;6.70;99.90
9640;DHT22;51745;50.872;4.732;2023-05-16T02:50:05;7.00;99.90
9640;DHT22;51745;50.872;4.732;2023-05-16T02:52:54;7.00;99.90
9640;DHT22;51745;50.872;4.732;2023-05-16T02:55:41;6.90;99.90
9640;DHT22;51745;50.872;4.732;2023-05-16T02:58:29;6.90;99.90
9640;DHT22;51745;50.872;4.732;2023-05-16T03:01:17;6.80;99.90
9640;DHT22;51745;50.872;4.732;2023-05-16T03:04:05;6.80;99.90
9640;DHT22;51745;50.872;4.732;2023-05-16T03:06:52;6.40;99.90
9640;DHT22;51745;50.872;4.732;2023-05-16T03:09:45;6.40;99.90
9640;DHT22;51745;50.872;4.732;2023-05-16T03:12:32;6.80;99.90
9640;DHT22;51745;50.872;4.732;2023-05-16T03:15:20;6.70;99.90
9640;DHT22;51745;50.872;4.732;2023-05-16T03:18:08;6.70;99.90
9640;DHT22;51745;50.872;4.732;2023-05-16T03:20:56;6.70;99.90
9640;DHT22;51745;50.872;4.732;2023-05-16T03:23:44;6.70;99.90
9640;DHT22;51745;50.872;4.732;2023-05-16T03:26:33;6.60;99.90
9640;DHT22;51745;50.872;4.732;2023-05-16T03:29:21;6.60;99.90
9640;DHT22;51745;50.872;4.732;2023-05-16T03:32:10;6.60;99.90
9640;DHT22;51745;50.872;4.732;2023-05-16T03:34:58;6.60;99.90
9640;DHT22;51745;50.872;4.732;2023-05-16T03:37:45;6.60;99.90
9640;DHT22;51745;50.872;4.732;2023-05-16T03:40:33;6.60;99.90
9640;DHT22;51745;50.872;4.732;2023-05-16T03:43:22;6.60;99.90
9640;DHT22;51745;50.872;4.732;2023-05-16T03:46:09;6.60;99.90
9640;DHT22;51745;50.872;4.732;2023-05-16T03:48:57;6.80;99.90
9640;DHT22;51745;50.872;4.732;2023-05-16T03:51:45;6.50;99.90
9640;DHT22;51745;50.872;4.732;2023-05-16T03:54:33;6.50;99.90
9640;DHT22;51745;50.872;4.732;2023-05-16T03:57:21;6.60;99.90
9640;DHT22;51745;50.872;4.732;2023-05-16T04:00:12;6.50;99.90
9640;DHT22;51745;50.872;4.732;2023-05-16T04:03:01;6.50;99.90
9640;DHT22;51745;50.872;4.732;2023-05-16T04:05:49;6.60;99.90
9640;DHT22;51745;50.872;4.732;2023-05-16T04:08:37;6.60;99.90
9640;DHT22;51745;50.872;4.732;2023-05-16T04:11:27;6.60;99.90
9640;DHT22;51745;50.872;4.732;2023-05-16T04:14:15;6.60;99.90
9640;DHT22;51745;50.872;4.732;2023-05-16T04:17:04;5.40;99.90
9640;DHT22;51745;50.872;4.732;2023-05-16T04:19:52;6.60;99.90
9640;DHT22;51745;50.872;4.732;2023-05-16T04:22:39;6.60;99.90
9640;DHT22;51745;50.872;4.732;2023-05-16T04:25:27;6.60;99.90
9640;DHT22;51745;50.872;4.732;2023-05-16T04:28:16;6.60;99.90
9640;DHT22;51745;50.872;4.732;2023-05-16T04:31:05;6.60;99.90
9640;DHT22;51745;50.872;4.732;2023-05-16T04:33:54;6.70;99.90
9640;DHT22;51745;50.872;4.732;2023-05-16T04:36:43;6.70;99.90
9640;DHT22;51745;50.872;4.732;2023-05-16T04:39:30;6.70;99.90
9640;DHT22;51745;50.872;4.732;2023-05-16T04:42:18;6.70;99.90
9640;DHT22;51745;50.872;4.732;2023-05-16T04:45:06;6.70;99.90
9640;DHT22;51745;50.872;4.732;2023-05-16T04:47:56;6.80;99.90
9640;DHT22;51745;50.872;4.732;2023-05-16T04:50:46;6.90;99.90
9640;DHT22;51745;50.872;4.732;2023-05-16T04:53:34;6.90;99.90
9640;DHT22;51745;50.872;4.732;2023-05-16T04:56:22;6.90;99.90
9640;DHT22;51745;50.872;4.732;2023-05-16T04:59:12;7.00;99.90
9640;DHT22;51745;50.872;4.732;2023-05-16T05:02:00;7.20;99.90
9640;DHT22;51745;50.872;4.732;2023-05-16T05:04:50;7.20;99.90
9640;DHT22;51745;50.872;4.732;2023-05-16T05:07:39;7.30;99.90
9640;DHT22;51745;50.872;4.732;2023-05-16T05:10:29;7.30;99.90
9640;DHT22;51745;50.872;4.732;2023-05-16T05:13:17;7.30;99.90
9640;DHT22;51745;50.872;4.732;2023-05-16T05:16:06;6.60;99.90
9640;DHT22;51745;50.872;4.732;2023-05-16T05:18:54;7.40;99.90
9640;DHT22;51745;50.872;4.732;2023-05-16T05:21:42;7.40;99.90
9640;DHT22;51745;50.872;4.732;2023-05-16T05:24:32;7.50;99.90
9640;DHT22;51745;50.872;4.732;2023-05-16T05:27:20;7.60;99.90
9640;DHT22;51745;50.872;4.732;2023-05-16T05:30:08;7.70;99.90
9640;DHT22;51745;50.872;4.732;2023-05-16T05:32:56;7.70;99.90
9640;DHT22;51745;50.872;4.732;2023-05-16T05:35:45;7.70;99.90
9640;DHT22;51745;50.872;4.732;2023-05-16T05:38:32;7.80;99.90
9640;DHT22;51745;50.872;4.732;2023-05-16T05:41:23;7.90;99.90
9640;DHT22;51745;50.872;4.732;2023-05-16T05:44:11;7.90;99.90
9640;DHT22;51745;50.872;4.732;2023-05-16T05:46:58;8.00;99.90
9640;DHT22;51745;50.872;4.732;2023-05-16T05:49:46;8.90;99.90
9640;DHT22;51745;50.872;4.732;2023-05-16T05:52:33;8.10;99.90
9640;DHT22;51745;50.872;4.732;2023-05-16T05:55:22;8.70;99.90
9640;DHT22;51745;50.872;4.732;2023-05-16T05:58:11;8.30;99.90
9640;DHT22;51745;50.872;4.732;2023-05-16T06:00:59;8.00;99.90
9640;DHT22;51745;50.872;4.732;2023-05-16T06:03:50;8.50;99.90
9640;DHT22;51745;50.872;4.732;2023-05-16T06:06:39;8.60;99.90
9640;DHT22;51745;50.872;4.732;2023-05-16T06:09:28;8.70;99.90
9640;DHT22;51745;50.872;4.732;2023-05-16T06:12:16;8.50;99.90
9640;DHT22;51745;50.872;4.732;2023-05-16T06:15:06;8.80;99.90
9640;DHT22;51745;50.872;4.732;2023-05-16T06:17:54;9.00;99.90
9640;DHT22;51745;50.872;4.732;2023-05-16T06:20:42;9.10;99.90
9640;DHT22;51745;50.872;4.732;2023-05-16T06:23:29;9.30;99.90
9640;DHT22;51745;50.872;4.732;2023-05-16T06:26:28;9.20;99.90
9640;DHT22;51745;50.872;4.732;2023-05-16T06:29:16;9.20;99.90
9640;DHT22;51745;50.872;4.732;2023-05-16T06:32:08;9.20;99.90
9640;DHT22;51745;50.872;4.732;2023-05-16T06:34:59;9.20;99.90
9640;DHT22;51745;50.872;4.732;2023-05-16T06:37:47;9.20;99.90
9640;DHT22;51745;50.872;4.732;2023-05-16T06:40:36;9.30;99.90
9640;DHT22;51745;50.872;4.732;2023-05-16T06:43:30;9.30;99.90
9640;DHT22;51745;50.872;4.732;2023-05-16T06:46:21;9.40;99.90
9640;DHT22;51745;50.872;4.732;2023-05-16T06:49:18;9.40;99.90
9640;DHT22;51745;50.872;4.732;2023-05-16T06:52:06;9.50;99.90
9640;DHT22;51745;50.872;4.732;2023-05-16T06:54:55;9.60;99.90
9640;DHT22;51745;50.872;4.732;2023-05-16T06:57:46;9.40;99.90
9640;DHT22;51745;50.872;4.732;2023-05-16T07:00:36;9.80;99.90
9640;DHT22;51745;50.872;4.732;2023-05-16T07:03:23;9.90;99.90
9640;DHT22;51745;50.872;4.732;2023-05-16T07:06:14;10.00;99.90
9640;DHT22;51745;50.872;4.732;2023-05-16T07:09:04;10.00;99.90
9640;DHT22;51745;50.872;4.732;2023-05-16T07:11:52;10.00;99.90
9640;DHT22;51745;50.872;4.732;2023-05-16T07:14:41;10.10;99.90
9640;DHT22;51745;50.872;4.732;2023-05-16T07:17:30;10.10;99.90
9640;DHT22;51745;50.872;4.732;2023-05-16T07:20:18;10.40;99.90
9640;DHT22;51745;50.872;4.732;2023-05-16T07:23:07;10.30;99.90
9640;DHT22;51745;50.872;4.732;2023-05-16T07:25:55;8.10;99.90
9640;DHT22;51745;50.872;4.732;2023-05-16T07:28:43;10.40;99.90
9640;DHT22;51745;50.872;4.732;2023-05-16T07:31:30;10.60;99.90
9640;DHT22;51745;50.872;4.732;2023-05-16T07:34:18;10.60;99.90
9640;DHT22;51745;50.872;4.732;2023-05-16T07:37:06;12.40;99.90
9640;DHT22;51745;50.872;4.732;2023-05-16T07:40:00;10.60;99.90
9640;DHT22;51745;50.872;4.732;2023-05-16T07:42:49;11.00;99.90
9640;DHT22;51745;50.872;4.732;2023-05-16T07:45:38;10.50;99.90
9640;DHT22;51745;50.872;4.732;2023-05-16T07:48:26;10.50;99.90
9640;DHT22;51745;50.872;4.732;2023-05-16T07:51:15;10.50;99.90
9640;DHT22;51745;50.872;4.732;2023-05-16T07:54:04;10.50;99.90
9640;DHT22;51745;50.872;4.732;2023-05-16T07:56:55;10.50;99.90
9640;DHT22;51745;50.872;4.732;2023-05-16T07:59:42;10.50;99.90
9640;DHT22;51745;50.872;4.732;2023-05-16T08:02:31;10.40;99.90
9640;DHT22;51745;50.872;4.732;2023-05-16T08:05:18;9.80;99.90
9640;DHT22;51745;50.872;4.732;2023-05-16T08:08:07;10.10;99.90
9640;DHT22;51745;50.872;4.732;2023-05-16T08:10:55;11.10;99.90
9640;DHT22;51745;50.872;4.732;2023-05-16T08:13:45;11.10;99.90
9640;DHT22;51745;50.872;4.732;2023-05-16T08:16:33;11.00;99.90
9640;DHT22;51745;50.872;4.732;2023-05-16T08:19:21;11.00;99.90
9640;DHT22;51745;50.872;4.732;2023-05-16T08:22:09;11.10;99.90
9640;DHT22;51745;50.872;4.732;2023-05-16T08:24:57;11.30;99.90
9640;DHT22;51745;50.872;4.732;2023-05-16T08:27:47;11.30;99.90
9640;DHT22;51745;50.872;4.732;2023-05-16T08:30:37;11.20;99.90
9640;DHT22;51745;50.872;4.732;2023-05-16T08:33:28;11.20;99.90
9640;DHT22;51745;50.872;4.732;2023-05-16T08:36:16;11.20;99.90
9640;DHT22;51745;50.872;4.732;2023-05-16T08:39:05;11.30;99.90
9640;DHT22;51745;50.872;4.732;2023-05-16T08:41:55;11.40;99.90
9640;DHT22;51745;50.872;4.732;2023-05-16T08:44:45;11.40;99.90
9640;DHT22;51745;50.872;4.732;2023-05-16T08:47:35;11.40;99.90
9640;DHT22;51745;50.872;4.732;2023-05-16T08:50:27;11.70;99.90
9640;DHT22;51745;50.872;4.732;2023-05-16T08:53:20;11.80;99.90
9640;DHT22;51745;50.872;4.732;2023-05-16T08:56:13;12.10;99.90
9640;DHT22;51745;50.872;4.732;2023-05-16T08:59:03;12.70;99.90
9640;DHT22;51745;50.872;4.732;2023-05-16T09:01:55;12.20;99.90
9640;DHT22;51745;50.872;4.732;2023-05-16T09:04:45;12.90;99.90
9640;DHT22;51745;50.872;4.732;2023-05-16T09:07:34;12.40;99.90
9640;DHT22;51745;50.872;4.732;2023-05-16T09:10:31;10.90;99.90
9640;DHT22;51745;50.872;4.732;2023-05-16T09:13:19;12.50;99.90
9640;DHT22;51745;50.872;4.732;2023-05-16T09:16:08;12.50;99.90
9640;DHT22;51745;50.872;4.732;2023-05-16T09:18:56;12.50;99.90
9640;DHT22;51745;50.872;4.732;2023-05-16T09:21:46;12.40;99.90
9640;DHT22;51745;50.872;4.732;2023-05-16T09:24:37;12.10;99.90
9640;DHT22;51745;50.872;4.732;2023-05-16T09:27:30;12.00;99.90
9640;DHT22;51745;50.872;4.732;2023-05-16T09:30:17;11.90;99.90
9640;DHT22;51745;50.872;4.732;2023-05-16T09:33:08;11.90;99.90
9640;DHT22;51745;50.872;4.732;2023-05-16T09:35:56;12.10;99.90
9640;DHT22;51745;50.872;4.732;2023-05-16T09:38:49;12.30;99.90
9640;DHT22;51745;50.872;4.732;2023-05-16T09:41:37;12.40;99.90
9640;DHT22;51745;50.872;4.732;2023-05-16T09:44:25;12.70;99.90
9640;DHT22;51745;50.872;4.732;2023-05-16T09:47:13;12.70;99.90
9640;DHT22;51745;50.872;4.732;2023-05-16T09:50:03;12.60;99.90
9640;DHT22;51745;50.872;4.732;2023-05-16T09:52:51;12.40;99.90
9640;DHT22;51745;50.872;4.732;2023-05-16T09:55:42;12.50;99.90
9640;DHT22;51745;50.872;4.732;2023-05-16T09:58:31;13.40;99.90
9640;DHT22;51745;50.872;4.732;2023-05-16T10:01:19;12.80;99.90
9640;DHT22;51745;50.872;4.732;2023-05-16T10:04:10;13.20;99.90
9640;DHT22;51745;50.872;4.732;2023-05-16T10:07:01;13.30;99.90
9640;DHT22;51745;50.872;4.732;2023-05-16T10:09:52;13.80;99.90
9640;DHT22;51745;50.872;4.732;2023-05-16T10:12:42;13.60;99.90
9640;DHT22;51745;50.872;4.732;2023-05-16T10:15:31;13.70;99.90
9640;DHT22;51745;50.872;4.732;2023-05-16T10:18:20;13.30;99.90
9640;DHT22;51745;50.872;4.732;2023-05-16T10:21:09;13.00;99.90
9640;DHT22;51745;50.872;4.732;2023-05-16T10:23:58;12.70;99.90
9640;DHT22;51745;50.872;4.732;2023-05-16T10:26:49;12.90;99.90
9640;DHT22;51745;50.872;4.732;2023-05-16T10:29:39;13.30;99.90
9640;DHT22;51745;50.872;4.732;2023-05-16T10:32:45;13.80;99.90
9640;DHT22;51745;50.872;4.732;2023-05-16T10:35:33;14.30;99.90
9640;DHT22;51745;50.872;4.732;2023-05-16T10:38:22;14.10;99.90
9640;DHT22;51745;50.872;4.732;2023-05-16T10:41:10;13.80;99.90
9640;DHT22;51745;50.872;4.732;2023-05-16T10:43:59;13.50;99.90
9640;DHT22;51745;50.872;4.732;2023-05-16T10:46:49;13.70;99.90
9640;DHT22;51745;50.872;4.732;2023-05-16T10:49:39;13.70;99.90
9640;DHT22;51745;50.872;4.732;2023-05-16T10:52:31;13.70;99.90
9640;DHT22;51745;50.872;4.732;2023-05-16T10:55:20;13.60;99.90
9640;DHT22;51745;50.872;4.732;2023-05-16T10:58:13;13.40;99.90
9640;DHT22;51745;50.872;4.732;2023-05-16T11:01:13;13.80;99.90
9640;DHT22;51745;50.872;4.732;2023-05-16T11:06:59;14.50;99.90
9640;DHT22;51745;50.872;4.732;2023-05-16T11:10:03;14.40;99.90
9640;DHT22;51745;50.872;4.732;2023-05-16T11:12:51;14.50;99.90
9640;DHT22;51745;50.872;4.732;2023-05-16T11:15:39;13.80;99.90
9640;DHT22;51745;50.872;4.732;2023-05-16T11:18:30;13.80;99.90
9640;DHT22;51745;50.872;4.732;2023-05-16T11:21:19;13.90;99.90
9640;DHT22;51745;50.872;4.732;2023-05-16T11:24:28;13.70;99.90
9640;DHT22;51745;50.872;4.732;2023-05-16T11:27:24;14.00;99.90
9640;DHT22;51745;50.872;4.732;2023-05-16T11:30:13;13.70;99.90
9640;DHT22;51745;50.872;4.732;2023-05-16T11:33:05;14.50;99.90
9640;DHT22;51745;50.872;4.732;2023-05-16T11:36:03;14.70;99.90
9640;DHT22;51745;50.872;4.732;2023-05-16T11:39:04;14.60;99.90
9640;DHT22;51745;50.872;4.732;2023-05-16T11:41:54;15.00;99.90
9640;DHT22;51745;50.872;4.732;2023-05-16T11:44:43;14.40;99.90
9640;DHT22;51745;50.872;4.732;2023-05-16T11:47:34;14.40;99.90
9640;DHT22;51745;50.872;4.732;2023-05-16T11:50:22;14.30;99.90
9640;DHT22;51745;50.872;4.732;2023-05-16T11:53:10;13.90;99.90
9640;DHT22;51745;50.872;4.732;2023-05-16T11:55:59;14.10;99.90
9640;DHT22;51745;50.872;4.732;2023-05-16T11:58:50;14.10;99.90
9640;DHT22;51745;50.872;4.732;2023-05-16T12:01:38;14.20;99.90
9640;DHT22;51745;50.872;4.732;2023-05-16T12:04:26;14.00;99.90
9640;DHT22;51745;50.872;4.732;2023-05-16T12:07:14;14.10;99.90
9640;DHT22;51745;50.872;4.732;2023-05-16T12:10:08;14.60;99.90
9640;DHT22;51745;50.872;4.732;2023-05-16T12:12:57;14.90;99.90
9640;DHT22;51745;50.872;4.732;2023-05-16T12:15:48;14.60;99.90
9640;DHT22;51745;50.872;4.732;2023-05-16T12:18:36;14.20;99.90
9640;DHT22;51745;50.872;4.732;2023-05-16T12:21:28;14.20;99.90
9640;DHT22;51745;50.872;4.732;2023-05-16T12:24:19;14.20;99.90
9640;DHT22;51745;50.872;4.732;2023-05-16T12:27:07;14.20;99.90
9640;DHT22;51745;50.872;4.732;2023-05-16T12:29:56;14.30;99.90
9640;DHT22;51745;50.872;4.732;2023-05-16T12:32:47;14.50;99.90
9640;DHT22;51745;50.872;4.732;2023-05-16T12:35:40;14.80;99.90
9640;DHT22;51745;50.872;4.732;2023-05-16T12:38:28;14.80;99.90
9640;DHT22;51745;50.872;4.732;2023-05-16T12:41:16;14.80;99.90
9640;DHT22;51745;50.872;4.732;2023-05-16T12:44:05;14.90;99.90
9640;DHT22;51745;50.872;4.732;2023-05-16T12:46:55;15.00;99.90
9640;DHT22;51745;50.872;4.732;2023-05-16T12:49:45;14.70;99.90
9640;DHT22;51745;50.872;4.732;2023-05-16T12:52:35;14.40;99.90
9640;DHT22;51745;50.872;4.732;2023-05-16T12:55:24;14.30;99.90
9640;DHT22;51745;50.872;4.732;2023-05-16T12:58:12;14.40;99.90
9640;DHT22;51745;50.872;4.732;2023-05-16T13:01:01;14.30;99.90
9640;DHT22;51745;50.872;4.732;2023-05-16T13:03:51;14.40;99.90
9640;DHT22;51745;50.872;4.732;2023-05-16T13:06:41;14.40;99.90
9640;DHT22;51745;50.872;4.732;2023-05-16T13:09:44;14.50;99.90
9640;DHT22;51745;50.872;4.732;2023-05-16T13:12:32;14.40;99.90
9640;DHT22;51745;50.872;4.732;2023-05-16T13:15:21;14.40;99.90
9640;DHT22;51745;50.872;4.732;2023-05-16T13:18:11;14.60;99.90
9640;DHT22;51745;50.872;4.732;2023-05-16T13:20:59;14.80;99.90
9640;DHT22;51745;50.872;4.732;2023-05-16T13:23:51;15.10;99.90
9640;DHT22;51745;50.872;4.732;2023-05-16T13:26:39;15.40;99.90
9640;DHT22;51745;50.872;4.732;2023-05-16T13:29:28;15.40;99.90
9640;DHT22;51745;50.872;4.732;2023-05-16T13:32:16;15.00;99.90
9640;DHT22;51745;50.872;4.732;2023-05-16T13:35:05;14.90;99.90
9640;DHT22;51745;50.872;4.732;2023-05-16T13:37:53;14.90;99.90
9640;DHT22;51745;50.872;4.732;2023-05-16T13:40:44;15.00;99.90
9640;DHT22;51745;50.872;4.732;2023-05-16T13:43:32;15.30;99.90
9640;DHT22;51745;50.872;4.732;2023-05-16T13:46:21;15.30;99.90
9640;DHT22;51745;50.872;4.732;2023-05-16T13:49:10;15.40;99.90
9640;DHT22;51745;50.872;4.732;2023-05-16T13:51:58;15.50;99.90
9640;DHT22;51745;50.872;4.732;2023-05-16T13:54:46;15.40;99.90
9640;DHT22;51745;50.872;4.732;2023-05-16T13:57:35;15.50;99.90
9640;DHT22;51745;50.872;4.732;2023-05-16T14:00:23;14.80;99.90
9640;DHT22;51745;50.872;4.732;2023-05-16T14:03:31;14.70;99.90
9640;DHT22;51745;50.872;4.732;2023-05-16T14:06:21;14.70;99.90
9640;DHT22;51745;50.872;4.732;2023-05-16T14:09:11;14.50;99.90
9640;DHT22;51745;50.872;4.732;2023-05-16T14:12:00;14.70;99.90
9640;DHT22;51745;50.872;4.732;2023-05-16T14:14:50;14.90;99.90
9640;DHT22;51745;50.872;4.732;2023-05-16T14:17:41;13.50;99.90
9640;DHT22;51745;50.872;4.732;2023-05-16T14:20:28;14.90;99.90
9640;DHT22;51745;50.872;4.732;2023-05-16T14:23:16;14.70;99.90
9640;DHT22;51745;50.872;4.732;2023-05-16T14:26:04;14.20;99.90
9640;DHT22;51745;50.872;4.732;2023-05-16T14:28:53;14.50;99.90
9640;DHT22;51745;50.872;4.732;2023-05-16T14:31:42;14.50;99.90
9640;DHT22;51745;50.872;4.732;2023-05-16T14:34:31;14.60;99.90
9640;DHT22;51745;50.872;4.732;2023-05-16T14:37:19;14.30;99.90
9640;DHT22;51745;50.872;4.732;2023-05-16T14:40:06;14.30;99.90
9640;DHT22;51745;50.872;4.732;2023-05-16T14:42:55;14.10;99.90
9640;DHT22;51745;50.872;4.732;2023-05-16T14:45:43;14.30;99.90
9640;DHT22;51745;50.872;4.732;2023-05-16T14:48:33;14.20;99.90
9640;DHT22;51745;50.872;4.732;2023-05-16T14:51:21;14.60;99.90
9640;DHT22;51745;50.872;4.732;2023-05-16T14:54:13;15.00;99.90
9640;DHT22;51745;50.872;4.732;2023-05-16T14:57:01;14.90;99.90
9640;DHT22;51745;50.872;4.732;2023-05-16T14:59:50;14.80;99.90
9640;DHT22;51745;50.872;4.732;2023-05-16T15:02:38;14.70;99.90
9640;DHT22;51745;50.872;4.732;2023-05-16T15:05:28;14.40;99.90
9640;DHT22;51745;50.872;4.732;2023-05-16T15:08:18;14.40;99.90
9640;DHT22;51745;50.872;4.732;2023-05-16T15:11:07;13.50;99.90
9640;DHT22;51745;50.872;4.732;2023-05-16T15:13:56;14.30;99.90
9640;DHT22;51745;50.872;4.732;2023-05-16T15:16:44;13.80;99.90
9640;DHT22;51745;50.872;4.732;2023-05-16T15:19:34;14.90;99.90
9640;DHT22;51745;50.872;4.732;2023-05-16T15:22:23;15.40;99.90
9640;DHT22;51745;50.872;4.732;2023-05-16T15:25:14;15.40;99.90
9640;DHT22;51745;50.872;4.732;2023-05-16T15:28:10;15.20;99.90
9640;DHT22;51745;50.872;4.732;2023-05-16T15:30:58;15.30;99.90
9640;DHT22;51745;50.872;4.732;2023-05-16T15:33:47;15.40;99.90
9640;DHT22;51745;50.872;4.732;2023-05-16T15:36:36;16.10;99.90
9640;DHT22;51745;50.872;4.732;2023-05-16T15:39:27;15.90;99.90
9640;DHT22;51745;50.872;4.732;2023-05-16T15:42:18;16.00;99.90
9640;DHT22;51745;50.872;4.732;2023-05-16T15:45:07;15.70;99.90
9640;DHT22;51745;50.872;4.732;2023-05-16T15:47:55;16.40;99.90
9640;DHT22;51745;50.872;4.732;2023-05-16T15:50:44;15.80;99.90
9640;DHT22;51745;50.872;4.732;2023-05-16T15:53:32;15.80;99.90
9640;DHT22;51745;50.872;4.732;2023-05-16T15:56:21;16.00;99.90
9640;DHT22;51745;50.872;4.732;2023-05-16T15:59:09;16.10;99.90
9640;DHT22;51745;50.872;4.732;2023-05-16T16:01:57;15.50;99.90
9640;DHT22;51745;50.872;4.732;2023-05-16T16:04:50;14.70;99.90
9640;DHT22;51745;50.872;4.732;2023-05-16T16:07:38;15.50;99.90
9640;DHT22;51745;50.872;4.732;2023-05-16T16:10:28;15.20;99.90
9640;DHT22;51745;50.872;4.732;2023-05-16T16:13:17;14.90;99.90
9640;DHT22;51745;50.872;4.732;2023-05-16T16:16:07;15.40;99.90
9640;DHT22;51745;50.872;4.732;2023-05-16T16:18:56;15.70;99.90
9640;DHT22;51745;50.872;4.732;2023-05-16T16:21:44;15.40;99.90
9640;DHT22;51745;50.872;4.732;2023-05-16T16:24:33;15.50;99.90
9640;DHT22;51745;50.872;4.732;2023-05-16T16:27:21;15.30;99.90
9640;DHT22;51745;50.872;4.732;2023-05-16T16:30:10;15.50;99.90
9640;DHT22;51745;50.872;4.732;2023-05-16T16:32:58;15.50;99.90
9640;DHT22;51745;50.872;4.732;2023-05-16T16:35:47;16.00;99.90
9640;DHT22;51745;50.872;4.732;2023-05-16T16:38:35;15.30;99.90
9640;DHT22;51745;50.872;4.732;2023-05-16T16:41:24;14.80;99.90
9640;DHT22;51745;50.872;4.732;2023-05-16T16:44:13;15.00;99.90
9640;DHT22;51745;50.872;4.732;2023-05-16T16:47:03;15.10;99.90
9640;DHT22;51745;50.872;4.732;2023-05-16T16:49:51;15.10;99.90
9640;DHT22;51745;50.872;4.732;2023-05-16T16:52:39;15.00;99.90
9640;DHT22;51745;50.872;4.732;2023-05-16T16:55:30;15.00;99.90
9640;DHT22;51745;50.872;4.732;2023-05-16T16:58:17;14.80;99.90
9640;DHT22;51745;50.872;4.732;2023-05-16T17:01:06;15.10;99.90
9640;DHT22;51745;50.872;4.732;2023-05-16T17:03:55;15.10;99.90
9640;DHT22;51745;50.872;4.732;2023-05-16T17:06:43;15.30;99.90
9640;DHT22;51745;50.872;4.732;2023-05-16T17:09:33;15.10;99.90
9640;DHT22;51745;50.872;4.732;2023-05-16T17:12:22;15.20;99.90
9640;DHT22;51745;50.872;4.732;2023-05-16T17:15:14;15.40;99.90
9640;DHT22;51745;50.872;4.732;2023-05-16T17:18:02;15.40;99.90
9640;DHT22;51745;50.872;4.732;2023-05-16T17:20:55;15.20;99.90
9640;DHT22;51745;50.872;4.732;2023-05-16T17:23:42;15.20;99.90
9640;DHT22;51745;50.872;4.732;2023-05-16T17:26:32;15.20;99.90
9640;DHT22;51745;50.872;4.732;2023-05-16T17:29:22;15.20;99.90
9640;DHT22;51745;50.872;4.732;2023-05-16T17:32:11;15.40;99.90
9640;DHT22;51745;50.872;4.732;2023-05-16T17:35:01;15.40;99.90
9640;DHT22;51745;50.872;4.732;2023-05-16T17:37:51;15.30;99.90
9640;DHT22;51745;50.872;4.732;2023-05-16T17:40:39;15.40;99.90
9640;DHT22;51745;50.872;4.732;2023-05-16T17:43:30;15.40;99.90
9640;DHT22;51745;50.872;4.732;2023-05-16T17:46:18;15.20;99.90
9640;DHT22;51745;50.872;4.732;2023-05-16T17:49:11;15.10;99.90
9640;DHT22;51745;50.872;4.732;2023-05-16T17:52:00;15.40;99.90
9640;DHT22;51745;50.872;4.732;2023-05-16T17:54:49;15.00;99.90
9640;DHT22;51745;50.872;4.732;2023-05-16T17:57:37;14.70;99.90
9640;DHT22;51745;50.872;4.732;2023-05-16T18:00:28;16.40;99.90
9640;DHT22;51745;50.872;4.732;2023-05-16T18:03:16;14.80;99.90
9640;DHT22;51745;50.872;4.732;2023-05-16T18:06:04;14.70;99.90
9640;DHT22;51745;50.872;4.732;2023-05-16T18:08:52;14.70;99.90
9640;DHT22;51745;50.872;4.732;2023-05-16T18:11:42;14.60;99.90
9640;DHT22;51745;50.872;4.732;2023-05-16T18:14:31;12.10;99.90
9640;DHT22;51745;50.872;4.732;2023-05-16T18:17:19;14.40;99.90
9640;DHT22;51745;50.872;4.732;2023-05-16T18:20:07;14.30;99.90